createdAt,value
2018-03-20T00:00:36.885Z,61.95
2018-03-20T00:03:04.030Z,58.28
2018-03-20T00:05:31.197Z,59.13
2018-03-20T00:07:57.626Z,64.68
2018-03-20T00:10:24.794Z,65.35
2018-03-20T00:12:51.220Z,67.03
2018-03-20T00:15:17.633Z,62.50
2018-03-20T00:17:44.898Z,68.07
2018-03-20T00:20:12.057Z,61.97
2018-03-20T00:22:38.483Z,67.50
2018-03-20T00:25:05.686Z,73.45
2018-03-20T00:27:32.099Z,70.33
2018-03-20T00:29:58.515Z,68.25
2018-03-20T00:32:24.918Z,73.78
2018-03-20T00:34:51.371Z,81.65
2018-03-20T00:37:18.539Z,72.40
2018-03-20T00:39:44.913Z,71.35
2018-03-20T00:42:11.322Z,77.80
2018-03-20T00:44:37.744Z,67.75
2018-03-20T00:47:04.174Z,63.15
2018-03-20T00:49:30.585Z,49.42
2018-03-20T00:51:57.849Z,44.67
2018-03-20T00:54:25.030Z,42.25
2018-03-20T00:56:51.477Z,39.10
2018-03-20T00:59:17.913Z,39.15
2018-03-20T01:01:44.326Z,42.25
2018-03-20T01:04:10.737Z,41.50
2018-03-20T01:06:37.875Z,41.20
2018-03-20T01:09:04.379Z,40.50
2018-03-20T01:11:30.818Z,48.90
2018-03-20T01:13:57.255Z,45.80
2018-03-20T01:16:23.715Z,41.55
2018-03-20T01:18:50.134Z,51.03
2018-03-20T01:21:16.599Z,50.65
2018-03-20T01:23:43.767Z,54.08
2018-03-20T01:26:10.197Z,48.42
2018-03-20T01:28:36.598Z,52.78
2018-03-20T01:31:03.061Z,48.83
2018-03-20T01:33:30.213Z,51.95
2018-03-20T01:35:57.360Z,52.65
2018-03-20T01:38:24.502Z,50.33
2018-03-20T01:40:51.663Z,49.40
2018-03-20T01:43:18.810Z,48.70
2018-03-20T01:45:45.971Z,49.77
2018-03-20T01:50:39.342Z,44.70
2018-03-20T01:53:17.666Z,39.95
2018-03-20T01:55:44.878Z,44.33
2018-03-20T01:58:12.083Z,47.50
2018-03-20T02:00:38.476Z,41.88
2018-03-20T02:03:04.898Z,47.13
2018-03-20T02:05:31.307Z,37.65
2018-03-20T02:07:57.740Z,38.92
2018-03-20T02:10:24.192Z,34.70
2018-03-20T02:12:50.665Z,46.25
2018-03-20T02:15:17.870Z,49.67
2018-03-20T02:17:44.296Z,47.30
2018-03-20T02:20:10.730Z,50.35
2018-03-20T02:22:37.145Z,49.05
2018-03-20T02:25:04.343Z,52.58
2018-03-20T02:27:30.734Z,48.38
2018-03-20T02:29:57.167Z,46.75
2018-03-20T02:32:24.335Z,49.33
2018-03-20T02:34:50.739Z,49.95
2018-03-20T02:37:17.946Z,51.60
2018-03-20T02:39:44.363Z,48.08
2018-03-20T02:42:10.791Z,51.15
2018-03-20T02:44:37.218Z,50.00
2018-03-20T02:47:03.627Z,47.00
2018-03-20T02:49:30.779Z,47.30
2018-03-20T02:51:57.195Z,47.08
2018-03-20T02:54:23.650Z,46.72
2018-03-20T02:56:50.794Z,48.85
2018-03-20T02:59:17.938Z,47.72
2018-03-20T03:01:44.324Z,51.47
2018-03-20T03:04:10.752Z,48.78
2018-03-20T03:06:37.197Z,53.63
2018-03-20T03:09:03.658Z,49.15
2018-03-20T03:11:30.179Z,48.70
2018-03-20T03:13:56.551Z,51.45
2018-03-20T03:16:23.722Z,52.62
2018-03-20T03:18:50.151Z,53.15
2018-03-20T03:21:17.317Z,56.20
2018-03-20T03:23:43.706Z,56.65
2018-03-20T03:26:10.083Z,54.97
2018-03-20T03:28:37.157Z,54.78
2018-03-20T03:31:03.564Z,51.60
2018-03-20T03:33:29.979Z,55.80
2018-03-20T03:35:57.113Z,55.22
2018-03-20T03:38:23.543Z,53.55
2018-03-20T03:40:49.972Z,51.33
2018-03-20T03:43:16.371Z,52.50
2018-03-20T03:45:42.789Z,52.60
2018-03-20T03:48:09.201Z,55.63
2018-03-20T03:50:36.353Z,53.22
2018-03-20T03:53:03.471Z,52.72
2018-03-20T03:55:29.912Z,53.20
2018-03-20T03:57:56.306Z,51.42
2018-03-20T04:00:23.483Z,59.53
2018-03-20T04:02:49.878Z,53.35
2018-03-20T04:05:16.311Z,53.40
2018-03-20T04:07:42.725Z,55.15
2018-03-20T04:10:09.871Z,51.67
2018-03-20T04:12:36.333Z,53.70
2018-03-20T04:15:02.791Z,50.70
2018-03-20T04:17:29.194Z,49.23
2018-03-20T04:19:55.611Z,49.58
2018-03-20T04:22:22.806Z,48.58
2018-03-20T04:24:49.266Z,45.33
2018-03-20T04:27:15.739Z,48.38
2018-03-20T04:29:43.157Z,46.30
2018-03-20T04:32:09.618Z,43.83
2018-03-20T04:34:36.421Z,48.20
2018-03-20T04:37:02.909Z,44.55
2018-03-20T04:39:30.037Z,44.58
2018-03-20T04:41:56.437Z,45.50
2018-03-20T04:44:22.815Z,41.40
2018-03-20T04:46:49.224Z,39.47
2018-03-20T04:49:15.602Z,40.67
2018-03-20T04:51:42.746Z,37.63
2018-03-20T04:54:09.919Z,39.25
2018-03-20T04:56:36.305Z,40.57
2018-03-20T04:59:02.711Z,42.28
2018-03-20T05:01:29.104Z,38.75
2018-03-20T05:03:56.246Z,41.03
2018-03-20T05:06:22.614Z,38.65
2018-03-20T05:08:49.027Z,40.08
2018-03-20T05:11:16.192Z,39.53
2018-03-20T05:13:42.581Z,40.90
2018-03-20T05:16:09.028Z,41.05
2018-03-20T05:21:53.286Z,39.67
2018-03-20T05:24:19.757Z,41.22
2018-03-20T05:26:47.011Z,39.22
2018-03-20T05:29:14.168Z,39.97
2018-03-20T05:31:41.344Z,44.15
2018-03-20T05:34:07.839Z,40.33
2018-03-20T05:36:35.035Z,38.45
2018-03-20T05:39:01.467Z,38.90
2018-03-20T05:41:28.032Z,36.95
2018-03-20T05:43:54.474Z,42.50
2018-03-20T05:46:26.894Z,38.97
2018-03-20T05:51:59.176Z,37.15
2018-03-20T05:54:26.349Z,37.42
2018-03-20T05:56:52.763Z,38.67
2018-03-20T05:59:19.954Z,40.30
2018-03-20T06:01:46.349Z,39.17
2018-03-20T06:04:13.527Z,37.45
2018-03-20T06:06:39.923Z,40.33
2018-03-20T06:09:07.067Z,36.03
2018-03-20T06:11:33.490Z,37.95
2018-03-20T06:13:59.906Z,35.10
2018-03-20T06:16:26.326Z,34.75
2018-03-20T06:18:52.701Z,32.83
2018-03-20T06:21:19.128Z,38.00
2018-03-20T06:23:45.504Z,34.03
2018-03-20T06:26:11.910Z,36.53
2018-03-20T06:28:38.429Z,35.40
2018-03-20T06:31:04.819Z,36.87
2018-03-20T06:33:31.214Z,33.45
2018-03-20T06:35:57.735Z,34.47
2018-03-20T06:38:24.139Z,35.00
2018-03-20T06:40:50.509Z,34.35
2018-03-20T06:43:16.917Z,34.70
2018-03-20T06:45:43.311Z,31.77
2018-03-20T06:48:17.482Z,33.10
2018-03-20T06:50:43.886Z,34.85
2018-03-20T06:53:10.287Z,32.88
2018-03-20T06:55:37.425Z,31.12
2018-03-20T06:58:04.550Z,24.95
2018-03-20T07:00:30.937Z,22.85
2018-03-20T07:02:57.309Z,22.62
2018-03-20T07:05:23.700Z,30.48
2018-03-20T07:07:50.094Z,28.80
2018-03-20T07:10:16.499Z,26.15
2018-03-20T07:12:42.909Z,26.80
2018-03-20T07:15:09.306Z,33.00
2018-03-20T07:17:35.713Z,33.67
2018-03-20T07:20:02.158Z,31.33
2018-03-20T07:22:28.588Z,28.27
2018-03-20T07:24:54.962Z,27.70
2018-03-20T07:27:22.091Z,30.42
2018-03-20T07:29:49.230Z,22.52
2018-03-20T07:32:15.608Z,28.67
2018-03-20T07:34:42.001Z,29.58
2018-03-20T07:37:08.374Z,24.85
2018-03-20T07:39:34.774Z,28.40
2018-03-20T07:42:01.913Z,23.50
2018-03-20T07:44:28.303Z,25.92
2018-03-20T07:46:54.718Z,28.35
2018-03-20T07:49:21.848Z,29.58
2018-03-20T07:51:48.237Z,27.42
2018-03-20T07:54:14.653Z,27.93
2018-03-20T07:56:41.035Z,29.30
2018-03-20T07:59:07.474Z,26.95
2018-03-20T08:01:33.959Z,27.10
2018-03-20T08:04:00.366Z,24.53
2018-03-20T08:06:27.493Z,27.50
2018-03-20T08:08:53.897Z,25.40
2018-03-20T08:11:20.266Z,26.17
2018-03-20T08:13:46.739Z,27.10
2018-03-20T08:16:13.166Z,27.10
2018-03-20T08:18:39.557Z,27.83
2018-03-20T08:21:05.961Z,26.23
2018-03-20T08:23:32.381Z,26.48
2018-03-20T08:25:58.754Z,25.25
2018-03-20T08:28:25.166Z,25.10
2018-03-20T08:30:51.538Z,26.05
2018-03-20T08:33:17.937Z,24.70
2018-03-20T08:35:44.336Z,24.30
2018-03-20T08:38:10.754Z,21.73
2018-03-20T08:40:37.159Z,22.73
2018-03-20T08:43:03.570Z,25.88
2018-03-20T08:45:29.978Z,23.02
2018-03-20T08:47:56.413Z,21.67
2018-03-20T08:50:22.828Z,21.67
2018-03-20T08:52:49.954Z,22.80
2018-03-20T08:55:16.374Z,21.48
2018-03-20T08:57:42.747Z,21.60
2018-03-20T09:00:09.968Z,20.10
2018-03-20T09:02:36.415Z,21.10
2018-03-20T09:05:02.981Z,19.80
2018-03-20T09:07:30.151Z,18.73
2018-03-20T09:09:56.522Z,17.80
2018-03-20T09:12:22.961Z,18.62
2018-03-20T09:14:49.369Z,21.23
2018-03-20T09:17:15.773Z,18.17
2018-03-20T09:19:42.963Z,21.08
2018-03-20T09:22:09.335Z,20.30
2018-03-20T09:24:35.739Z,20.92
2018-03-20T09:27:02.130Z,20.23
2018-03-20T09:29:29.310Z,19.48
2018-03-20T09:31:55.704Z,20.02
2018-03-20T09:34:22.879Z,17.95
2018-03-20T09:36:49.267Z,19.55
2018-03-20T09:39:15.682Z,21.83
2018-03-20T09:41:42.066Z,18.17
2018-03-20T09:44:09.218Z,17.52
2018-03-20T09:46:36.355Z,19.60
2018-03-20T09:49:03.561Z,19.17
2018-03-20T09:51:29.961Z,15.63
2018-03-20T09:53:57.105Z,15.90
2018-03-20T09:56:24.248Z,17.87
2018-03-20T09:58:50.616Z,18.90
2018-03-20T10:01:17.038Z,16.20
2018-03-20T10:03:43.451Z,19.08
2018-03-20T10:06:10.591Z,19.87
2018-03-20T10:08:37.003Z,16.45
2018-03-20T10:11:03.415Z,20.05
2018-03-20T10:13:29.859Z,19.00
2018-03-20T10:15:56.238Z,21.30
2018-03-20T10:18:23.378Z,20.05
2018-03-20T10:20:50.508Z,19.62
2018-03-20T10:23:16.902Z,19.42
2018-03-20T10:25:43.310Z,17.35
2018-03-20T10:28:10.445Z,20.10
2018-03-20T10:30:36.847Z,21.45
2018-03-20T10:33:03.322Z,18.80
2018-03-20T10:35:29.702Z,23.77
2018-03-20T10:37:56.080Z,19.10
2018-03-20T10:40:22.500Z,19.40
2018-03-20T10:42:48.893Z,19.42
2018-03-20T10:45:15.325Z,21.00
2018-03-20T10:47:41.757Z,19.70
2018-03-20T10:50:08.141Z,18.23
2018-03-20T10:52:34.567Z,19.15
2018-03-20T10:55:00.975Z,19.62
2018-03-20T10:57:27.387Z,16.40
2018-03-20T10:59:53.754Z,19.73
2018-03-20T11:02:20.391Z,17.85
2018-03-20T11:04:46.797Z,18.67
2018-03-20T11:07:13.216Z,18.58
2018-03-20T11:09:40.349Z,17.45
2018-03-20T11:12:06.759Z,20.17
2018-03-20T11:14:33.196Z,17.65
2018-03-20T11:16:59.631Z,16.40
2018-03-20T11:19:26.057Z,21.12
2018-03-20T11:21:52.462Z,16.70
2018-03-20T11:24:18.830Z,16.90
2018-03-20T11:26:45.230Z,12.52
2018-03-20T11:29:11.616Z,17.33
2018-03-20T11:31:38.034Z,17.65
2018-03-20T11:34:04.421Z,16.58
2018-03-20T11:36:30.831Z,17.27
2018-03-20T11:38:57.940Z,14.38
2018-03-20T11:41:24.342Z,17.10
2018-03-20T11:43:50.718Z,15.13
2018-03-20T11:46:17.129Z,12.33
2018-03-20T11:48:43.593Z,14.93
2018-03-20T11:51:09.965Z,14.38
2018-03-20T11:53:37.098Z,14.32
2018-03-20T11:56:03.498Z,14.50
2018-03-20T11:58:29.899Z,14.65
2018-03-20T12:00:56.310Z,13.67
2018-03-20T12:03:23.441Z,16.37
2018-03-20T12:05:49.813Z,13.73
2018-03-20T12:08:28.529Z,13.52
2018-03-20T12:10:54.934Z,14.98
2018-03-20T12:13:21.343Z,11.25
2018-03-20T12:15:47.743Z,13.93
2018-03-20T12:18:14.150Z,12.80
2018-03-20T12:20:41.278Z,13.50
2018-03-20T12:23:07.678Z,13.65
2018-03-20T12:25:34.046Z,15.68
2018-03-20T12:28:00.450Z,12.37
2018-03-20T12:30:26.857Z,12.60
2018-03-20T12:32:53.217Z,14.55
2018-03-20T12:35:19.666Z,13.05
2018-03-20T12:37:46.138Z,16.98
2018-03-20T12:40:13.415Z,15.52
2018-03-20T12:42:39.796Z,13.05
2018-03-20T12:45:06.198Z,15.35
2018-03-20T12:47:32.563Z,13.50
2018-03-20T12:49:58.977Z,13.82
2018-03-20T12:52:25.360Z,14.95
2018-03-20T12:54:52.506Z,12.63
2018-03-20T12:57:18.883Z,15.75
2018-03-20T12:59:45.304Z,14.07
2018-03-20T13:02:11.669Z,15.03
2018-03-20T13:04:38.114Z,14.15
2018-03-20T13:07:04.518Z,13.75
2018-03-20T13:09:30.914Z,13.95
2018-03-20T13:11:58.146Z,13.15
2018-03-20T13:14:25.259Z,15.23
2018-03-20T13:16:51.702Z,15.75
2018-03-20T13:19:18.112Z,14.40
2018-03-20T13:21:44.503Z,14.90
2018-03-20T13:24:10.920Z,13.60
2018-03-20T13:26:37.306Z,12.90
2018-03-20T13:29:04.513Z,12.07
2018-03-20T13:31:30.986Z,14.18
2018-03-20T13:33:58.158Z,12.68
2018-03-20T13:36:24.555Z,13.93
2018-03-20T13:38:50.978Z,12.57
2018-03-20T13:41:17.392Z,12.43
2018-03-20T13:43:43.818Z,11.75
2018-03-20T13:46:10.254Z,12.45
2018-03-20T13:48:36.654Z,15.13
2018-03-20T13:51:03.093Z,14.85
2018-03-20T13:53:29.551Z,15.43
2018-03-20T13:55:56.006Z,12.75
2018-03-20T13:58:22.425Z,12.45
2018-03-20T14:00:48.794Z,12.25
2018-03-20T14:03:15.207Z,10.95
2018-03-20T14:05:41.624Z,11.40
2018-03-20T14:08:08.074Z,14.20
2018-03-20T14:10:34.498Z,15.25
2018-03-20T14:13:00.898Z,13.93
2018-03-20T14:15:27.294Z,11.43
2018-03-20T14:17:53.684Z,15.57
2018-03-20T14:20:20.077Z,15.52
2018-03-20T14:22:46.458Z,15.90
2018-03-20T14:25:12.866Z,16.85
2018-03-20T14:27:40.002Z,15.52
2018-03-20T14:30:07.143Z,18.62
2018-03-20T14:32:33.522Z,14.52
2018-03-20T14:34:59.923Z,14.85
2018-03-20T14:37:27.084Z,12.32
2018-03-20T14:39:54.195Z,14.68
2018-03-20T14:42:20.629Z,15.23
2018-03-20T14:44:47.047Z,12.98
2018-03-20T14:47:13.446Z,13.40
2018-03-20T14:49:39.837Z,13.80
2018-03-20T14:52:06.237Z,16.35
2018-03-20T14:54:32.646Z,14.05
2018-03-20T14:56:59.089Z,12.90
2018-03-20T14:59:25.465Z,15.82
2018-03-20T15:01:51.873Z,17.15
2018-03-20T15:04:18.292Z,15.70
2018-03-20T15:06:44.666Z,17.70
2018-03-20T15:09:11.097Z,13.73
2018-03-20T15:11:37.466Z,14.43
2018-03-20T15:14:04.625Z,16.95
2018-03-20T15:16:31.791Z,13.55
2018-03-20T15:18:58.179Z,14.27
2018-03-20T15:21:24.570Z,14.75
2018-03-20T15:23:50.945Z,14.20
2018-03-20T15:26:17.393Z,10.70
2018-03-20T15:28:43.844Z,13.90
2018-03-20T15:31:10.226Z,13.70
2018-03-20T15:33:36.633Z,10.18
2018-03-20T16:49:18.103Z,10.45
2018-03-20T16:51:47.000Z,13.38
2018-03-20T16:54:15.962Z,11.90
2018-03-20T16:56:45.785Z,13.38
2018-03-20T16:59:14.744Z,11.50
2018-03-20T17:01:43.406Z,13.50
2018-03-20T17:04:12.449Z,12.63
2018-03-20T17:06:41.313Z,13.40
2018-03-20T17:09:10.316Z,12.00
2018-03-20T17:55:32.684Z,13.38
2018-03-20T17:57:59.091Z,12.85
2018-03-20T18:00:26.271Z,13.48
2018-03-20T18:02:52.714Z,12.40
2018-03-20T18:05:19.106Z,12.25
2018-03-20T18:07:47.244Z,12.18
2018-03-20T18:10:13.674Z,13.10
2018-03-20T18:12:40.105Z,11.68
2018-03-20T18:15:06.519Z,14.35
2018-03-20T18:17:32.918Z,14.05
2018-03-20T18:20:00.076Z,14.10
2018-03-20T18:22:27.279Z,14.65
2018-03-20T18:24:53.680Z,13.15
2018-03-20T18:27:20.128Z,13.75
2018-03-20T18:29:46.675Z,12.40
2018-03-20T18:32:13.063Z,15.13
2018-03-20T18:34:40.236Z,16.25
2018-03-20T18:37:06.680Z,14.10
2018-03-20T18:39:33.109Z,16.73
2018-03-20T18:41:59.520Z,13.98
2018-03-20T18:44:26.650Z,16.60
2018-03-20T18:46:53.063Z,13.88
2018-03-20T18:49:19.487Z,16.65
2018-03-20T18:51:45.894Z,16.62
2018-03-20T18:54:12.315Z,15.60
2018-03-20T18:56:39.497Z,16.00
2018-03-20T18:59:05.898Z,16.12
2018-03-20T19:01:33.058Z,17.58
2018-03-20T19:03:59.488Z,16.40
2018-03-20T19:06:26.658Z,17.85
2018-03-20T19:08:53.082Z,16.25
2018-03-20T19:11:20.493Z,18.58
2018-03-20T19:13:47.687Z,16.87
2018-03-20T19:16:14.858Z,18.33
2018-03-20T19:18:41.272Z,19.75
2018-03-20T19:21:08.425Z,21.10
2018-03-20T19:23:36.349Z,18.48
2018-03-20T19:26:02.782Z,18.55
2018-03-20T19:28:29.184Z,18.12
2018-03-20T19:30:55.597Z,21.20
2018-03-20T19:33:22.734Z,19.42
2018-03-20T19:35:49.914Z,19.25
2018-03-20T19:38:16.318Z,20.45
2018-03-20T19:40:43.460Z,20.23
2018-03-20T19:43:09.874Z,21.73
2018-03-20T19:45:36.286Z,19.17
2018-03-20T19:48:02.723Z,20.23
2018-03-20T19:50:29.150Z,21.15
2018-03-20T19:52:55.579Z,20.98
2018-03-20T19:55:22.007Z,21.40
2018-03-20T19:57:48.426Z,22.60
2018-03-20T20:00:15.601Z,23.35
2018-03-20T20:02:41.991Z,23.30
2018-03-20T20:05:08.430Z,24.92
2018-03-20T20:07:35.638Z,27.83
2018-03-20T20:10:02.077Z,25.73
2018-03-20T20:12:28.461Z,27.20
2018-03-20T20:14:55.647Z,27.70
2018-03-20T20:17:22.041Z,28.10
2018-03-20T20:19:49.166Z,27.55
2018-03-20T20:22:15.586Z,29.25
2018-03-20T20:24:41.991Z,29.80
2018-03-20T20:27:08.402Z,25.27
2018-03-20T20:29:35.559Z,25.75
2018-03-20T20:32:01.946Z,26.30
2018-03-20T20:34:28.418Z,24.08
2018-03-20T20:36:54.786Z,26.02
2018-03-20T20:39:21.188Z,25.85
2018-03-20T20:41:48.337Z,27.60
2018-03-20T20:44:15.459Z,26.67
2018-03-20T20:46:41.862Z,25.98
2018-03-20T20:49:08.245Z,29.20
2018-03-20T20:51:34.665Z,26.98
2018-03-20T20:54:01.048Z,28.50
2018-03-20T20:56:27.481Z,27.48
2018-03-20T20:58:53.907Z,27.50
2018-03-20T21:01:20.298Z,27.48
2018-03-20T21:03:46.743Z,24.90
2018-03-20T21:06:13.153Z,29.90
2018-03-20T21:08:39.563Z,28.33
2018-03-20T21:11:05.938Z,30.50
2018-03-20T21:13:32.341Z,32.28
2018-03-20T21:15:58.763Z,32.42
2018-03-20T21:18:25.162Z,32.83
2018-03-20T21:20:52.317Z,30.88
2018-03-20T21:23:19.457Z,33.05
2018-03-20T21:25:45.878Z,32.53
2018-03-20T21:28:12.283Z,33.58
2018-03-20T21:30:38.699Z,33.85
2018-03-20T21:33:05.152Z,34.92
2018-03-20T21:35:31.514Z,32.63
2018-03-20T21:37:57.907Z,32.72
2018-03-20T21:40:24.329Z,32.20
2018-03-20T21:42:50.726Z,34.30
2018-03-20T21:45:17.884Z,32.03
2018-03-20T21:47:44.283Z,33.17
2018-03-20T21:50:10.730Z,33.67
2018-03-20T21:52:37.131Z,33.38
2018-03-20T21:55:03.644Z,33.28
2018-03-20T21:57:30.799Z,31.12
2018-03-20T21:59:57.206Z,35.97
2018-03-20T22:02:23.695Z,36.90
2018-03-20T22:04:50.077Z,38.70
2018-03-20T22:07:16.492Z,35.05
2018-03-20T22:09:42.878Z,35.67
2018-03-20T22:12:09.331Z,36.22
2018-03-20T22:14:35.720Z,35.92
2018-03-20T22:17:02.942Z,38.08
2018-03-20T22:19:29.406Z,38.15
2018-03-20T22:21:56.595Z,38.67
2018-03-20T22:24:23.003Z,36.65
2018-03-20T22:26:50.218Z,38.42
2018-03-20T22:29:16.617Z,38.55
2018-03-20T22:31:42.994Z,36.38
2018-03-20T22:34:09.417Z,39.03
2018-03-20T22:36:35.821Z,39.08
2018-03-20T22:39:02.247Z,40.15
2018-03-20T22:41:28.686Z,45.92
2018-03-20T22:43:55.084Z,42.80
2018-03-20T22:46:21.489Z,39.75
2018-03-20T22:48:47.870Z,43.42
2018-03-20T22:51:14.304Z,43.78
2018-03-20T22:53:41.463Z,42.75
2018-03-20T22:56:07.835Z,47.97
2018-03-20T22:58:34.232Z,42.15
2018-03-20T23:01:00.627Z,45.27
2018-03-20T23:03:27.039Z,45.90
2018-03-20T23:05:53.476Z,46.47
2018-03-20T23:08:19.853Z,47.75
2018-03-20T23:10:46.992Z,51.40
2018-03-20T23:13:14.142Z,47.75
2018-03-20T23:15:41.274Z,43.33
2018-03-20T23:18:07.678Z,45.28
2018-03-20T23:20:34.083Z,45.70
2018-03-20T23:23:00.626Z,47.80
2018-03-20T23:25:34.166Z,48.05
2018-03-20T23:28:00.551Z,47.92
2018-03-20T23:30:27.746Z,48.03
2018-03-20T23:32:54.252Z,48.95
2018-03-20T23:35:21.345Z,48.30
2018-03-20T23:37:47.756Z,51.83
2018-03-20T23:40:14.390Z,48.97
2018-03-20T23:42:40.806Z,49.90
2018-03-20T23:45:07.195Z,48.08
2018-03-20T23:47:33.659Z,54.10
2018-03-20T23:50:00.784Z,48.30
2018-03-20T23:52:27.198Z,50.65
2018-03-20T23:54:53.577Z,52.78
2018-03-20T23:57:20.718Z,53.50
2018-03-20T23:59:47.117Z,52.67
